Huvudsida
METAR-TAF:

METAR-TAF

Flygplatser :

Havanna, Kuba

José Martís internationella flygplats

latitud: 22-59N, longitud: 082-24W, höjd: 59 m

Aktuellt väderrapport

Denna rapport gjordes för 12 timmar och 29 minuter sedan, klockan 14:55 UTC
Vind 11 kt från ost/sydost
Temperatur 27°C
Fuktighet 66%
Tryck 1023 hPa
Sikt: 9000 m
Få moln på en höjd av 3000 ft

METAR: MUHA 201455Z 11011KT 9000 FEW030 27/20 Q1023

Tid: 22:24 (03:24 UTC)

Väderprognos

Denna rapport gjordes för 16 timmar och 24 minuter sedan, klockan 11:00 UTC
Prognos gäller från 20 kl. 12 UTC till 21 kl. 12 UTC
Vind 6 kt från ost
Sikt: 9000 m
Få moln på en höjd av 2500 ft
Blir
från 20 kl. 14 UTC till 20 kl. 15 UTC
Vind 10 kt från sydost
Blir
från 20 kl. 19 UTC till 20 kl. 21 UTC
Brutna moln på en höjd av 2000 ft
Blir
från 21 kl. 02 UTC till 21 kl. 04 UTC
Vind 5 kt från ost

TAF: MUHA 201100Z 2012/2112 09006KT 9000 FEW025 BECMG 2014/2015 13010KT BECMG 2019/2021 BKN020 BECMG 2102/2104 09005KT

Aktuella väderrapporter och prognoser från 4000 flygplatser (METAR- och TAF-rapporter).

De tillgängliga stationerna syns som gula och röda prickar på kartan.

För musen över prickarna för att se namnen på stationerna.

Klicka sedan för att få väderrapporter och prognoser.

För att ändra kartan: Klicka på de gröna knapparna med ett svart kors på för att zooma in; den gröna knappen med ett streck på för att zooma ut; eller på de gröna pilarna för angränsande kartor.


METAR-TAF: